Time;durP1;ratioP1;P1;durP2;ratioP2;P2;SDS_P1;SDS_P2;PMS_P1;PMS_P2;Temp;Humidity;BMP_temperature;BMP_pressure;BME280_temperature;BME280_humidity;BME280_pressure;Samples;Min_cycle;Max_cycle;Signal;HPM_P1;HPM_P2
2024/03/14 00:01:47;;;;;;;3.42;1.70;;;12.30;99.90;;;;;;4977327;28;20026;-78
2024/03/14 00:04:15;;;;;;;2.33;1.58;;;12.20;99.90;;;;;;4994582;28;20072;-79
2024/03/14 00:06:46;;;;;;;3.90;1.65;;;12.20;99.90;;;;;;4977256;28;20452;-78
2024/03/14 00:09:12;;;;;;;2.30;1.77;;;12.20;99.90;;;;;;4994317;28;20025;-79
2024/03/14 00:11:38;;;;;;;2.92;1.63;;;12.20;99.90;;;;;;4994593;28;20023;-78
2024/03/14 00:14:03;;;;;;;4.78;1.70;;;12.20;99.90;;;;;;4976270;28;20137;-78
2024/03/14 00:16:30;;;;;;;3.40;2.20;;;12.20;99.90;;;;;;4977475;28;20080;-78
2024/03/14 00:18:58;;;;;;;3.40;1.58;;;12.20;99.90;;;;;;4993884;28;20031;-80
2024/03/14 00:21:24;;;;;;;3.47;1.92;;;12.20;99.90;;;;;;4994553;28;20046;-78
2024/03/14 00:23:50;;;;;;;5.32;2.00;;;12.20;99.90;;;;;;4994399;28;20107;-79
2024/03/14 00:26:16;;;;;;;5.57;1.95;;;12.20;99.90;;;;;;4994057;28;20057;-79
2024/03/14 00:28:41;;;;;;;5.63;2.13;;;12.20;99.90;;;;;;4977343;28;20030;-79
2024/03/14 00:31:07;;;;;;;3.35;1.83;;;12.20;99.90;;;;;;4976332;28;20467;-79
2024/03/14 00:33:33;;;;;;;3.83;2.40;;;12.20;99.90;;;;;;4994342;28;20084;-79
2024/03/14 00:35:59;;;;;;;2.53;1.80;;;12.10;99.90;;;;;;4993887;28;20050;-79
2024/03/14 00:38:25;;;;;;;4.05;1.88;;;12.00;99.90;;;;;;4977731;28;20026;-79
2024/03/14 00:40:51;;;;;;;6.88;2.00;;;12.00;99.90;;;;;;4998186;28;20100;-79
2024/03/14 00:43:17;;;;;;;5.47;2.60;;;11.90;99.90;;;;;;4997774;28;20038;-79
2024/03/14 00:45:42;;;;;;;5.20;2.45;;;11.90;99.90;;;;;;4980875;28;20036;-79
2024/03/14 00:48:08;;;;;;;3.17;2.13;;;11.80;99.90;;;;;;4997749;28;20517;-79
2024/03/14 00:50:35;;;;;;;4.10;1.63;;;11.80;99.90;;;;;;4981523;28;20030;-79
2024/03/14 00:53:02;;;;;;;3.88;1.65;;;11.70;99.90;;;;;;4980277;28;20030;-79
2024/03/14 00:55:28;;;;;;;4.40;1.95;;;11.60;99.90;;;;;;4981065;28;20030;-79
2024/03/14 00:57:54;;;;;;;3.85;2.05;;;11.50;99.90;;;;;;4980665;28;20031;-81
2024/03/14 01:00:23;;;;;;;4.28;2.05;;;11.60;99.90;;;;;;4979997;28;20141;-79
2024/03/14 01:02:50;;;;;;;4.72;1.80;;;11.50;99.90;;;;;;4997890;28;20034;-79
2024/03/14 01:05:16;;;;;;;3.00;1.50;;;11.50;99.90;;;;;;4980053;28;20129;-79
2024/03/14 01:07:44;;;;;;;3.55;2.00;;;11.50;99.90;;;;;;4997897;28;20030;-79
2024/03/14 01:10:10;;;;;;;3.90;1.92;;;11.40;99.90;;;;;;4997110;28;20109;-78
2024/03/14 01:12:36;;;;;;;2.83;2.03;;;11.40;99.90;;;;;;4997198;28;20150;-79
2024/03/14 01:15:02;;;;;;;3.10;2.10;;;11.30;99.90;;;;;;4996664;28;20109;-79
2024/03/14 01:17:27;;;;;;;6.32;2.22;;;11.30;99.90;;;;;;4997223;28;20034;-79
2024/03/14 01:19:53;;;;;;;5.07;1.67;;;11.30;99.90;;;;;;4997169;28;20022;-78
2024/03/14 01:22:19;;;;;;;3.47;2.10;;;11.30;99.90;;;;;;4979286;28;20036;-78
2024/03/14 01:24:45;;;;;;;6.00;2.13;;;11.30;99.90;;;;;;4979663;28;20022;-79
2024/03/14 01:27:10;;;;;;;3.38;2.00;;;11.30;99.90;;;;;;4979662;28;20022;-78
2024/03/14 01:29:37;;;;;;;6.30;2.03;;;11.20;99.90;;;;;;4980121;28;20026;-78
2024/03/14 01:32:04;;;;;;;7.25;2.47;;;11.20;99.90;;;;;;4979604;28;20056;-79
2024/03/14 01:34:30;;;;;;;2.75;1.92;;;11.20;99.90;;;;;;4979275;28;20062;-79
2024/03/14 01:37:06;;;;;;;3.60;1.90;;;11.20;99.90;;;;;;4996904;28;20110;-78
2024/03/14 01:39:32;;;;;;;5.05;2.25;;;11.20;99.90;;;;;;4996947;28;20053;-78
2024/03/14 01:41:58;;;;;;;3.97;2.25;;;11.20;99.90;;;;;;4979244;28;20030;-81
2024/03/14 01:44:37;;;;;;;2.90;1.80;;;11.10;99.90;;;;;;4979222;28;20027;-78
2024/03/14 01:47:02;;;;;;;6.07;2.40;;;11.10;99.90;;;;;;4996659;28;20026;-78
2024/03/14 01:49:28;;;;;;;3.72;2.40;;;11.20;99.90;;;;;;4979779;28;20379;-79
2024/03/14 01:51:53;;;;;;;4.55;2.42;;;11.10;99.90;;;;;;4979340;28;20066;-78
2024/03/14 01:54:19;;;;;;;4.13;2.20;;;11.10;99.90;;;;;;4979057;28;20026;-78
2024/03/14 01:56:57;;;;;;;8.57;2.28;;;11.20;99.90;;;;;;4979267;28;20030;-78
2024/03/14 01:59:27;;;;;;;4.18;1.98;;;11.10;99.90;;;;;;4978987;28;20022;-79
2024/03/14 02:01:57;;;;;;;2.70;1.77;;;11.00;99.90;;;;;;4979699;28;20023;-79
2024/03/14 02:04:28;;;;;;;4.88;1.98;;;11.00;99.90;;;;;;4978879;28;20038;-79
2024/03/14 02:07:09;;;;;;;2.75;2.03;;;11.00;99.90;;;;;;4979260;28;20030;-79
2024/03/14 02:09:37;;;;;;;3.42;2.05;;;10.90;99.90;;;;;;4996541;28;20106;-79
2024/03/14 02:12:05;;;;;;;2.00;1.52;;;11.00;99.90;;;;;;4978045;28;20054;-81
2024/03/14 02:14:31;;;;;;;2.60;1.80;;;10.90;99.90;;;;;;4979083;28;20031;-81
2024/03/14 02:17:04;;;;;;;4.78;1.70;;;10.90;99.90;;;;;;4979186;28;20053;-81
2024/03/14 02:19:30;;;;;;;4.60;1.63;;;10.90;99.90;;;;;;4979006;28;20453;-81
2024/03/14 02:21:58;;;;;;;3.35;1.77;;;10.80;99.90;;;;;;4979174;28;20057;-81
2024/03/14 02:24:25;;;;;;;3.38;1.83;;;10.80;99.90;;;;;;4978610;28;20494;-78
2024/03/14 02:26:51;;;;;;;2.50;1.77;;;10.80;99.90;;;;;;4978684;28;20423;-78
2024/03/14 02:29:17;;;;;;;3.88;2.30;;;10.80;99.90;;;;;;4978396;28;20080;-78
2024/03/14 02:31:42;;;;;;;3.58;2.05;;;10.80;99.90;;;;;;4996012;28;20539;-78
2024/03/14 02:34:09;;;;;;;4.00;2.42;;;10.70;99.90;;;;;;4995289;28;20042;-78
2024/03/14 02:36:35;;;;;;;2.50;1.80;;;10.70;99.90;;;;;;4978852;28;20026;-78
2024/03/14 02:39:01;;;;;;;2.35;1.80;;;10.70;99.90;;;;;;4978459;28;20026;-84
2024/03/14 02:41:28;;;;;;;2.80;1.77;;;10.50;99.90;;;;;;4978639;28;20034;-78
2024/03/14 02:43:56;;;;;;;4.78;1.80;;;10.60;99.90;;;;;;4978231;28;20046;-78
2024/03/14 02:46:22;;;;;;;2.25;1.60;;;10.60;99.90;;;;;;4978039;28;20022;-78
2024/03/14 02:48:48;;;;;;;3.60;1.60;;;10.50;99.90;;;;;;4978485;28;20023;-78
2024/03/14 02:51:13;;;;;;;6.75;1.85;;;10.60;99.90;;;;;;4978106;28;20411;-78
2024/03/14 02:53:39;;;;;;;3.78;1.70;;;10.60;99.90;;;;;;4995638;28;20034;-78
2024/03/14 02:56:08;;;;;;;3.55;1.90;;;10.60;99.90;;;;;;4977984;28;20030;-79
2024/03/14 02:58:36;;;;;;;3.78;1.90;;;10.60;99.90;;;;;;4978292;28;20030;-78
2024/03/14 03:01:06;;;;;;;2.22;1.65;;;10.60;99.90;;;;;;4977520;28;20460;-82
2024/03/14 03:03:31;;;;;;;4.88;2.03;;;10.60;99.90;;;;;;4978078;28;20034;-78
2024/03/14 03:05:57;;;;;;;3.42;1.83;;;10.60;99.90;;;;;;4978250;28;20036;-80
2024/03/14 03:08:22;;;;;;;2.67;1.77;;;10.60;99.90;;;;;;4977748;28;20022;-80
2024/03/14 03:10:48;;;;;;;4.47;2.08;;;10.60;99.90;;;;;;4995616;28;20523;-79
2024/03/14 03:13:14;;;;;;;5.28;3.15;;;10.60;99.90;;;;;;4995046;28;20034;-80
2024/03/14 03:15:40;;;;;;;3.05;1.95;;;10.60;99.90;;;;;;4978210;28;20034;-80
2024/03/14 03:18:07;;;;;;;3.30;2.30;;;10.50;99.90;;;;;;4994730;28;20026;-82
2024/03/14 03:20:33;;;;;;;5.30;2.30;;;10.50;99.90;;;;;;4977991;28;20034;-78
2024/03/14 03:23:12;;;;;;;4.18;1.80;;;10.50;99.90;;;;;;4977437;28;20130;-79
2024/03/14 03:25:38;;;;;;;4.57;2.22;;;10.40;99.90;;;;;;4977854;28;20022;-78
2024/03/14 03:28:13;;;;;;;3.55;1.70;;;10.40;99.90;;;;;;4994654;28;20376;-79
2024/03/14 03:30:43;;;;;;;3.35;1.52;;;10.40;99.90;;;;;;4995032;28;20105;-78
2024/03/14 03:33:16;;;;;;;3.08;1.70;;;10.30;99.90;;;;;;4977030;28;20038;-79
2024/03/14 03:35:48;;;;;;;2.58;1.58;;;10.30;99.90;;;;;;4977642;28;20396;-77
2024/03/14 03:38:14;;;;;;;2.25;1.63;;;10.30;99.90;;;;;;4977206;28;20023;-79
2024/03/14 03:40:43;;;;;;;4.53;2.42;;;10.30;99.90;;;;;;4994987;28;20030;-81
2024/03/14 03:43:09;;;;;;;4.03;1.80;;;10.30;99.90;;;;;;4977281;28;20034;-82
2024/03/14 03:45:35;;;;;;;3.42;1.60;;;10.30;99.90;;;;;;4995034;28;20029;-81
2024/03/14 03:48:01;;;;;;;3.28;1.92;;;10.30;99.90;;;;;;4994955;28;20030;-78
2024/03/14 03:50:27;;;;;;;3.15;1.70;;;10.30;99.90;;;;;;4994745;28;20607;-79
2024/03/14 03:52:53;;;;;;;4.93;1.98;;;10.20;99.90;;;;;;4994771;28;20053;-79
2024/03/14 03:55:19;;;;;;;3.85;1.73;;;10.20;99.90;;;;;;4977356;28;20558;-79
2024/03/14 03:57:45;;;;;;;3.92;1.90;;;10.10;99.90;;;;;;4994961;28;20068;-79
2024/03/14 04:02:57;;;;;;;1.98;1.42;;;10.10;99.90;;;;;;4994875;28;20045;-79
2024/03/14 04:05:25;;;;;;;4.28;1.70;;;10.10;99.90;;;;;;4977469;28;20125;-79
2024/03/14 04:07:53;;;;;;;2.65;1.50;;;10.10;99.90;;;;;;4977763;28;20034;-79
2024/03/14 04:10:23;;;;;;;5.40;1.77;;;10.10;99.90;;;;;;4977365;28;20030;-79
2024/03/14 04:12:50;;;;;;;3.05;1.50;;;10.10;99.90;;;;;;4994197;28;20084;-80
2024/03/14 04:15:15;;;;;;;2.42;1.45;;;10.00;99.90;;;;;;4976967;28;20534;-79
2024/03/14 04:17:41;;;;;;;2.38;1.20;;;10.00;99.90;;;;;;4994179;28;20026;-79
2024/03/14 04:20:11;;;;;;;1.92;1.60;;;10.00;99.90;;;;;;4977003;28;20030;-81
2024/03/14 04:22:39;;;;;;;3.47;1.80;;;10.00;99.90;;;;;;4977234;28;20038;-79
2024/03/14 04:25:06;;;;;;;2.47;1.80;;;9.90;99.90;;;;;;4977187;28;20031;-79
2024/03/14 04:27:32;;;;;;;4.00;1.70;;;9.90;99.90;;;;;;4976915;28;20026;-79
2024/03/14 04:29:57;;;;;;;7.18;2.03;;;9.80;99.90;;;;;;4977406;28;20073;-79
2024/03/14 04:32:23;;;;;;;3.58;1.55;;;9.80;99.90;;;;;;4976818;28;20042;-79
2024/03/14 04:34:48;;;;;;;6.47;2.08;;;9.80;99.90;;;;;;4977044;28;20050;-79
2024/03/14 04:37:15;;;;;;;4.03;1.60;;;9.80;99.90;;;;;;4977130;28;20065;-79
2024/03/14 04:39:41;;;;;;;5.65;1.95;;;9.70;99.90;;;;;;4977145;28;20490;-78
2024/03/14 04:42:07;;;;;;;4.18;1.63;;;9.70;99.90;;;;;;4994456;28;20018;-81
2024/03/14 04:44:35;;;;;;;1.90;1.52;;;9.60;99.90;;;;;;4976851;28;20456;-79
2024/03/14 04:47:03;;;;;;;4.70;1.52;;;9.60;99.90;;;;;;4976795;28;20031;-78
2024/03/14 04:49:32;;;;;;;2.05;1.63;;;9.60;99.90;;;;;;4976835;28;20114;-77
2024/03/14 04:51:57;;;;;;;2.72;1.65;;;9.50;99.90;;;;;;4994284;28;20037;-78
2024/03/14 04:54:24;;;;;;;2.75;1.77;;;9.60;99.90;;;;;;4976616;28;20125;-79
2024/03/14 04:56:50;;;;;;;3.88;1.90;;;9.60;99.90;;;;;;4976735;28;20458;-79
2024/03/14 04:59:15;;;;;;;3.40;1.60;;;9.50;99.90;;;;;;4976463;28;20061;-79
2024/03/14 05:01:44;;;;;;;2.63;1.60;;;9.50;99.90;;;;;;4976750;28;20113;-79
2024/03/14 05:04:09;;;;;;;5.10;2.10;;;9.50;99.90;;;;;;4976376;28;20120;-80
2024/03/14 05:06:35;;;;;;;4.90;2.67;;;9.60;99.90;;;;;;4976852;28;20068;-79
2024/03/14 05:09:01;;;;;;;3.58;2.10;;;9.60;99.90;;;;;;4976890;28;20023;-79
2024/03/14 05:11:26;;;;;;;3.08;1.77;;;9.60;99.90;;;;;;4993560;28;20073;-79
2024/03/14 05:13:56;;;;;;;4.70;2.50;;;9.50;99.90;;;;;;4977096;28;20031;-78
2024/03/14 05:16:26;;;;;;;4.28;2.22;;;9.50;99.90;;;;;;4976628;28;20041;-79
2024/03/14 05:18:51;;;;;;;7.40;2.45;;;9.60;99.90;;;;;;4976949;28;20117;-79
2024/03/14 05:21:17;;;;;;;5.47;2.30;;;9.60;99.90;;;;;;4976366;28;20061;-79
2024/03/14 05:23:42;;;;;;;5.65;1.70;;;9.60;99.90;;;;;;4976550;28;20035;-79
2024/03/14 05:26:08;;;;;;;4.97;1.67;;;9.50;99.90;;;;;;4979763;28;20113;-78
2024/03/14 05:28:35;;;;;;;4.00;1.45;;;9.30;99.90;;;;;;4979881;28;20081;-78
2024/03/14 05:31:01;;;;;;;2.40;1.48;;;9.10;99.90;;;;;;4980148;28;20483;-79
2024/03/14 05:33:27;;;;;;;2.70;1.45;;;9.10;99.90;;;;;;4996515;28;21169;-79
2024/03/14 05:35:53;;;;;;;3.22;1.63;;;9.00;99.90;;;;;;4979783;28;20092;-79
2024/03/14 05:38:18;;;;;;;3.17;1.40;;;9.10;99.90;;;;;;4979603;28;20077;-79
2024/03/14 05:40:45;;;;;;;1.52;1.10;;;9.10;99.90;;;;;;4979861;28;20026;-79
2024/03/14 05:43:11;;;;;;;2.47;1.00;;;9.10;99.90;;;;;;4997259;28;20041;-80
2024/03/14 05:45:37;;;;;;;1.50;1.23;;;9.10;99.90;;;;;;4979437;28;20034;-79
2024/03/14 05:48:11;;;;;;;1.88;1.10;;;9.00;99.90;;;;;;4980236;28;20388;-79
2024/03/14 05:50:37;;;;;;;4.35;1.60;;;9.00;99.90;;;;;;4996968;28;20057;-79
2024/03/14 05:53:06;;;;;;;2.05;1.40;;;9.00;99.90;;;;;;4979948;28;20468;-79
2024/03/14 05:55:31;;;;;;;1.83;1.40;;;8.90;99.90;;;;;;4978995;28;20037;-79
2024/03/14 05:57:57;;;;;;;3.50;1.85;;;8.90;99.90;;;;;;4979397;28;20027;-79
2024/03/14 06:00:24;;;;;;;2.58;1.63;;;8.80;99.90;;;;;;4995963;28;20121;-80
2024/03/14 06:02:51;;;;;;;3.30;1.55;;;8.80;99.90;;;;;;4979576;28;20030;-80
2024/03/14 06:05:17;;;;;;;3.20;1.60;;;8.80;99.90;;;;;;4995520;28;20030;-79
2024/03/14 06:07:43;;;;;;;3.55;1.80;;;8.70;99.90;;;;;;4979127;28;20030;-78
2024/03/14 06:10:12;;;;;;;2.45;1.60;;;8.80;99.90;;;;;;4979007;28;20430;-79
2024/03/14 06:12:38;;;;;;;1.98;1.45;;;8.80;99.90;;;;;;4995351;28;20566;-79
2024/03/14 06:15:08;;;;;;;2.88;1.58;;;8.80;99.90;;;;;;4995582;28;20030;-79
2024/03/14 06:17:34;;;;;;;2.25;1.55;;;8.80;99.90;;;;;;4995131;28;20019;-80
2024/03/14 06:20:00;;;;;;;2.60;1.80;;;8.80;99.90;;;;;;4996478;28;20077;-79
2024/03/14 06:22:26;;;;;;;3.35;2.03;;;8.90;99.90;;;;;;4995852;28;20612;-78
2024/03/14 06:24:51;;;;;;;3.35;1.77;;;8.90;99.90;;;;;;4994927;28;20117;-79
2024/03/14 06:27:17;;;;;;;4.53;2.28;;;8.90;99.90;;;;;;4995466;28;20026;-79
2024/03/14 06:29:43;;;;;;;5.28;2.40;;;9.00;99.90;;;;;;4995154;28;20030;-80
2024/03/14 06:32:09;;;;;;;3.83;2.38;;;9.10;99.90;;;;;;4996167;28;20034;-79
2024/03/14 06:34:36;;;;;;;5.32;2.60;;;9.10;99.90;;;;;;4995423;28;20093;-79
2024/03/14 06:37:02;;;;;;;7.63;3.20;;;9.10;99.90;;;;;;4993838;28;20097;-79
2024/03/14 06:39:28;;;;;;;6.55;2.72;;;9.10;99.90;;;;;;4994411;28;20065;-80
2024/03/14 06:41:54;;;;;;;5.40;3.15;;;9.10;99.90;;;;;;4995400;28;20026;-80
2024/03/14 06:44:19;;;;;;;5.97;2.83;;;9.10;99.90;;;;;;4994622;28;20057;-77
2024/03/14 06:46:45;;;;;;;9.55;4.50;;;9.20;99.90;;;;;;4995040;28;20037;-79
2024/03/14 06:49:14;;;;;;;8.15;3.88;;;9.10;99.90;;;;;;4994587;28;20026;-78
2024/03/14 06:51:43;;;;;;;4.75;3.38;;;9.10;99.90;;;;;;4994932;28;20030;-80
2024/03/14 06:54:10;;;;;;;5.53;3.30;;;9.10;99.90;;;;;;4995131;28;20027;-76
2024/03/14 06:56:36;;;;;;;4.03;2.80;;;9.20;99.90;;;;;;4978464;28;20029;-78
2024/03/14 06:59:05;;;;;;;3.28;2.03;;;9.20;99.90;;;;;;4978040;28;20026;-78
2024/03/14 07:01:31;;;;;;;4.53;2.50;;;9.20;99.90;;;;;;4977838;28;20034;-82
2024/03/14 07:03:58;;;;;;;3.80;2.33;;;9.30;99.90;;;;;;4978312;28;20061;-77
2024/03/14 07:06:26;;;;;;;4.45;2.28;;;9.30;99.90;;;;;;4977648;28;20052;-76
2024/03/14 07:08:56;;;;;;;3.95;2.13;;;9.40;99.90;;;;;;4977795;28;20026;-77
2024/03/14 07:11:26;;;;;;;5.20;2.30;;;9.40;99.90;;;;;;4977156;28;20375;-76
2024/03/14 07:13:54;;;;;;;4.82;2.20;;;9.40;99.90;;;;;;4977623;28;20061;-77
2024/03/14 07:16:23;;;;;;;5.50;2.08;;;9.40;99.90;;;;;;4977215;28;20031;-78
2024/03/14 07:18:55;;;;;;;3.13;2.10;;;9.40;99.90;;;;;;4977695;28;20030;-77
2024/03/14 07:21:22;;;;;;;4.47;2.40;;;9.50;99.90;;;;;;4977293;28;20058;-77
2024/03/14 07:23:48;;;;;;;4.55;2.28;;;9.50;99.90;;;;;;4994719;28;20030;-77
2024/03/14 07:26:24;;;;;;;4.15;2.70;;;9.50;99.90;;;;;;4977540;28;20030;-76
2024/03/14 07:28:53;;;;;;;4.35;2.17;;;9.40;99.90;;;;;;4977715;28;20030;-76
2024/03/14 07:31:19;;;;;;;3.25;2.13;;;9.50;99.90;;;;;;4994222;28;20080;-77
2024/03/14 07:33:45;;;;;;;3.25;2.00;;;9.50;99.90;;;;;;4976926;28;20137;-77
2024/03/14 07:36:15;;;;;;;4.15;2.65;;;9.50;99.90;;;;;;4977134;28;20054;-76
2024/03/14 07:38:49;;;;;;;4.45;2.63;;;9.60;99.90;;;;;;4993808;28;20502;-76
2024/03/14 07:41:25;;;;;;;5.72;3.10;;;9.60;99.90;;;;;;4977142;28;20027;-77
2024/03/14 07:43:53;;;;;;;9.68;3.47;;;9.70;99.90;;;;;;4994726;28;20057;-76
2024/03/14 07:46:22;;;;;;;5.60;3.28;;;9.70;99.90;;;;;;4976709;28;20030;-77
2024/03/14 07:48:49;;;;;;;6.25;3.50;;;9.70;99.90;;;;;;4977125;28;20030;-77
2024/03/14 07:51:16;;;;;;;6.30;3.58;;;9.80;99.90;;;;;;4976984;28;20165;-77
2024/03/14 07:53:42;;;;;;;5.57;3.17;;;9.80;99.90;;;;;;4976633;28;20108;-77
2024/03/14 07:56:10;;;;;;;8.93;3.47;;;9.70;99.90;;;;;;4994410;28;20033;-77
2024/03/14 07:58:38;;;;;;;4.55;3.08;;;9.80;99.90;;;;;;4993698;28;20464;-77
2024/03/14 08:01:09;;;;;;;14.55;7.40;;;9.90;99.90;;;;;;4994046;28;20023;-77
2024/03/14 08:03:42;;;;;;;5.85;2.50;;;9.90;99.90;;;;;;4976222;28;20511;-78
2024/03/14 08:06:08;;;;;;;4.53;2.40;;;9.90;99.90;;;;;;4976761;28;20066;-76
2024/03/14 08:08:37;;;;;;;5.40;2.40;;;10.00;99.90;;;;;;4993565;28;20037;-77
2024/03/14 08:11:09;;;;;;;3.70;2.20;;;10.00;99.90;;;;;;4994244;28;20097;-77
2024/03/14 08:13:35;;;;;;;3.20;2.00;;;10.00;99.90;;;;;;4993688;28;20030;-77
2024/03/14 08:18:59;;;;;;;4.18;2.22;;;10.10;99.90;;;;;;4961070;28;20088;-77
2024/03/14 08:21:29;;;;;;;5.35;2.35;;;10.10;99.90;;;;;;4976410;28;20031;-77
2024/03/14 08:23:54;;;;;;;4.55;2.22;;;10.20;99.90;;;;;;4976694;28;20035;-77
2024/03/14 08:26:21;;;;;;;3.17;2.38;;;10.20;99.90;;;;;;4976293;28;20034;-84
2024/03/14 08:28:47;;;;;;;3.67;2.25;;;10.30;99.90;;;;;;4994149;28;20037;-77
2024/03/14 08:31:16;;;;;;;4.93;2.38;;;10.30;99.90;;;;;;4976663;28;20419;-78
2024/03/14 08:33:50;;;;;;;4.55;2.40;;;10.30;99.90;;;;;;4993433;28;20487;-77
2024/03/14 08:36:16;;;;;;;4.63;2.90;;;10.30;99.90;;;;;;4976609;28;20506;-77
2024/03/14 08:38:42;;;;;;;2.90;2.38;;;10.40;99.90;;;;;;4976268;28;20045;-77
2024/03/14 08:41:08;;;;;;;5.38;2.40;;;10.40;99.90;;;;;;4976692;28;20031;-76
2024/03/14 08:43:33;;;;;;;3.25;2.58;;;10.50;99.90;;;;;;4975800;28;20396;-76
2024/03/14 08:46:00;;;;;;;3.60;2.50;;;10.50;99.90;;;;;;4976882;28;20033;-76
2024/03/14 08:48:26;;;;;;;4.38;2.08;;;10.50;99.90;;;;;;4993044;28;20113;-76
2024/03/14 08:50:52;;;;;;;3.03;2.05;;;10.60;99.90;;;;;;4976629;28;20081;-76
2024/03/14 08:53:17;;;;;;;4.85;2.00;;;10.60;99.90;;;;;;4976093;28;20042;-76
2024/03/14 08:55:55;;;;;;;3.20;2.45;;;10.70;99.90;;;;;;4993149;28;20147;-76
2024/03/14 08:58:22;;;;;;;5.05;2.20;;;10.70;99.90;;;;;;4993860;28;20364;-76
2024/03/14 09:00:52;;;;;;;5.35;2.75;;;10.80;99.90;;;;;;4996632;28;20030;-77
2024/03/14 09:03:18;;;;;;;4.82;3.00;;;10.90;99.90;;;;;;4980119;28;20034;-76
2024/03/14 09:05:44;;;;;;;4.40;3.00;;;10.90;99.90;;;;;;4996836;28;20114;-78
2024/03/14 09:08:10;;;;;;;4.80;3.45;;;10.90;99.90;;;;;;4980088;28;20473;-77
2024/03/14 09:10:37;;;;;;;5.05;3.13;;;10.90;99.90;;;;;;4996885;28;20033;-76
2024/03/14 09:13:04;;;;;;;9.75;3.40;;;10.90;99.90;;;;;;4997299;28;20117;-76
2024/03/14 09:15:30;;;;;;;5.18;2.95;;;10.90;99.90;;;;;;4979356;28;20048;-76
2024/03/14 09:17:56;;;;;;;5.07;3.35;;;10.90;99.90;;;;;;4979752;28;20022;-76
2024/03/14 09:20:21;;;;;;;6.25;3.40;;;10.90;99.90;;;;;;4997148;28;20033;-76
2024/03/14 09:22:53;;;;;;;5.00;3.15;;;11.00;99.90;;;;;;4996895;28;20101;-76
2024/03/14 09:25:24;;;;;;;5.90;3.58;;;11.00;99.90;;;;;;4979680;28;20029;-76
2024/03/14 09:27:52;;;;;;;5.50;3.22;;;11.00;99.90;;;;;;4979972;28;20472;-76
2024/03/14 09:30:18;;;;;;;4.40;3.10;;;11.10;99.90;;;;;;4979595;28;20034;-76
2024/03/14 09:32:45;;;;;;;3.78;2.88;;;11.10;99.90;;;;;;4979076;28;20502;-76
2024/03/14 09:35:14;;;;;;;7.85;3.80;;;11.10;99.90;;;;;;4979504;28;20057;-76
2024/03/14 09:37:40;;;;;;;9.48;4.60;;;11.10;99.90;;;;;;4979173;28;20049;-77
2024/03/14 09:40:06;;;;;;;5.85;3.95;;;11.20;99.90;;;;;;4979818;28;20471;-78
2024/03/14 09:42:32;;;;;;;6.63;4.13;;;11.20;99.90;;;;;;4979505;28;20034;-77
2024/03/14 09:45:01;;;;;;;4.97;3.72;;;11.30;99.90;;;;;;4997142;28;20023;-77
2024/03/14 09:47:40;;;;;;;6.65;4.07;;;11.30;99.90;;;;;;4996843;28;20430;-78
2024/03/14 09:50:17;;;;;;;5.93;3.75;;;11.30;99.90;;;;;;4979630;28;20026;-78
2024/03/14 09:52:44;;;;;;;7.35;4.30;;;11.40;99.90;;;;;;4979180;28;20060;-77
2024/03/14 09:55:14;;;;;;;6.28;3.72;;;11.40;99.90;;;;;;4979624;28;20072;-78
2024/03/14 09:57:40;;;;;;;5.68;3.70;;;11.40;99.90;;;;;;4979049;28;20029;-77
2024/03/14 10:00:08;;;;;;;9.05;3.92;;;11.40;99.90;;;;;;4979494;28;20030;-77
2024/03/14 10:02:35;;;;;;;5.68;3.67;;;11.40;99.90;;;;;;4978802;28;20077;-77
2024/03/14 10:05:01;;;;;;;5.97;3.85;;;11.40;99.90;;;;;;4978978;28;20041;-77
2024/03/14 10:07:29;;;;;;;6.43;3.65;;;11.40;99.90;;;;;;4978999;28;20073;-78
2024/03/14 10:09:55;;;;;;;4.70;3.38;;;11.50;99.90;;;;;;4979229;28;20101;-77
2024/03/14 10:12:21;;;;;;;6.43;3.30;;;11.50;99.90;;;;;;4978251;28;20448;-77
2024/03/14 10:15:00;;;;;;;5.38;3.47;;;11.60;99.90;;;;;;4978575;28;20030;-77
2024/03/14 10:17:31;;;;;;;4.80;3.25;;;11.70;99.90;;;;;;4996247;28;20467;-77
2024/03/14 10:20:08;;;;;;;7.70;3.43;;;11.70;99.90;;;;;;4978953;28;20038;-77
2024/03/14 10:22:35;;;;;;;5.45;2.95;;;11.70;99.90;;;;;;4978494;28;20268;-77
2024/03/14 10:25:03;;;;;;;5.53;2.85;;;11.80;99.90;;;;;;4996151;28;20026;-77
2024/03/14 10:27:29;;;;;;;3.95;2.78;;;11.90;99.90;;;;;;4978313;28;20033;-78
2024/03/14 10:29:56;;;;;;;4.38;3.03;;;12.00;99.90;;;;;;4978551;28;20095;-77
2024/03/14 10:32:23;;;;;;;5.07;3.35;;;12.00;99.90;;;;;;4978596;28;20030;-77
2024/03/14 10:34:51;;;;;;;5.75;3.17;;;12.10;99.90;;;;;;4995390;28;20054;-77
2024/03/14 10:37:18;;;;;;;5.90;3.33;;;12.20;99.90;;;;;;4978488;28;20034;-77
2024/03/14 10:39:54;;;;;;;4.75;3.30;;;12.10;99.90;;;;;;4995383;28;20034;-77
2024/03/14 10:42:25;;;;;;;5.03;3.33;;;12.10;99.90;;;;;;4995886;28;20353;-77
2024/03/14 10:44:52;;;;;;;6.07;3.65;;;12.20;99.90;;;;;;4978069;28;20029;-77
2024/03/14 10:47:18;;;;;;;6.40;3.53;;;12.20;99.90;;;;;;4995712;28;20040;-77
2024/03/14 10:49:47;;;;;;;6.20;3.45;;;12.20;99.90;;;;;;4977914;28;20034;-78
2024/03/14 10:52:17;;;;;;;6.53;3.22;;;12.40;99.90;;;;;;4978580;28;20053;-77
2024/03/14 10:54:46;;;;;;;4.93;3.10;;;12.40;99.90;;;;;;4977548;28;20026;-76
2024/03/14 10:57:18;;;;;;;7.15;3.53;;;12.50;99.90;;;;;;4978012;28;20077;-77
2024/03/14 10:59:44;;;;;;;4.38;3.00;;;12.50;99.90;;;;;;4977784;28;20028;-76
2024/03/14 11:02:14;;;;;;;4.97;3.47;;;12.50;99.90;;;;;;4994959;28;20479;-77
2024/03/14 11:04:41;;;;;;;5.55;2.92;;;12.60;99.90;;;;;;4977197;28;20034;-77
2024/03/14 11:07:08;;;;;;;5.13;3.35;;;12.60;99.90;;;;;;4995478;28;20032;-77
2024/03/14 11:09:49;;;;;;;5.35;2.80;;;12.70;99.90;;;;;;4977345;28;20033;-77
2024/03/14 11:12:20;;;;;;;4.80;2.28;;;12.70;99.90;;;;;;4995263;28;20031;-77
2024/03/14 11:14:51;;;;;;;4.77;1.97;;;12.80;99.90;;;;;;4977261;28;20033;-77
2024/03/14 11:17:20;;;;;;;2.92;1.85;;;12.90;99.90;;;;;;4977704;28;20268;-76
2024/03/14 11:19:49;;;;;;;2.17;1.70;;;13.00;99.90;;;;;;4977104;28;20116;-77
2024/03/14 11:22:18;;;;;;;3.70;2.63;;;13.00;99.90;;;;;;4994542;28;20031;-77
2024/03/14 11:24:48;;;;;;;2.60;1.90;;;13.10;99.90;;;;;;4994361;28;20022;-77
2024/03/14 11:27:15;;;;;;;3.47;1.50;;;13.10;99.90;;;;;;4977283;28;20022;-77
2024/03/14 11:29:42;;;;;;;2.40;1.50;;;13.20;99.90;;;;;;4977039;28;20518;-77
2024/03/14 11:32:24;;;;;;;5.20;1.25;;;13.20;99.90;;;;;;4977204;28;20030;-77
2024/03/14 11:34:53;;;;;;;1.50;1.25;;;13.20;99.90;;;;;;4976720;28;20046;-77
2024/03/14 11:37:19;;;;;;;2.05;1.60;;;13.30;99.90;;;;;;4977102;28;20038;-77
2024/03/14 11:39:48;;;;;;;2.55;1.77;;;13.40;99.90;;;;;;4976660;28;20085;-77
2024/03/14 11:42:14;;;;;;;1.50;1.40;;;13.40;99.90;;;;;;4994367;28;20058;-77
2024/03/14 11:44:47;;;;;;;3.17;1.80;;;13.50;99.90;;;;;;4976748;28;20027;-77
2024/03/14 11:47:34;;;;;;;2.13;1.42;;;13.50;99.90;;;;;;4994380;28;20088;-77
2024/03/14 11:50:00;;;;;;;2.00;1.40;;;13.60;99.90;;;;;;4977092;28;20411;-77
2024/03/14 11:52:26;;;;;;;2.40;1.63;;;13.60;99.90;;;;;;4994252;28;20109;-77
2024/03/14 11:54:57;;;;;;;1.80;1.38;;;13.70;99.90;;;;;;4976438;28;20428;-77
2024/03/14 11:57:25;;;;;;;1.98;1.20;;;13.70;99.90;;;;;;4977147;28;20054;-77
2024/03/14 11:59:51;;;;;;;1.63;1.00;;;13.70;99.90;;;;;;4976268;28;20080;-77
2024/03/14 12:02:16;;;;;;;1.20;1.10;;;13.70;99.90;;;;;;4976552;28;20124;-78
2024/03/14 12:04:42;;;;;;;2.15;1.35;;;13.70;99.90;;;;;;4976271;28;20030;-77
2024/03/14 12:07:08;;;;;;;2.25;1.30;;;13.80;99.90;;;;;;4977034;28;20153;-77
2024/03/14 12:09:35;;;;;;;2.25;1.30;;;13.90;99.90;;;;;;4976338;28;20353;-82
2024/03/14 12:12:01;;;;;;;1.38;1.20;;;14.00;99.90;;;;;;4993905;28;20022;-77
2024/03/14 12:14:28;;;;;;;1.98;1.30;;;14.10;99.90;;;;;;4993917;28;20039;-77
2024/03/14 12:16:54;;;;;;;1.58;1.10;;;14.30;99.90;;;;;;4975807;28;20198;-77
2024/03/14 12:19:19;;;;;;;3.50;1.23;;;14.50;99.90;;;;;;4976650;28;20026;-77
2024/03/14 12:21:54;;;;;;;1.88;1.15;;;14.60;99.90;;;;;;4976218;28;20050;-77
2024/03/14 12:24:20;;;;;;;2.17;1.35;;;14.80;99.90;;;;;;4976403;28;20038;-78
2024/03/14 12:26:47;;;;;;;2.15;1.00;;;15.00;99.90;;;;;;4993476;28;20460;-77
2024/03/14 12:29:13;;;;;;;1.33;1.10;;;15.20;99.90;;;;;;4976536;28;20031;-77
2024/03/14 12:31:40;;;;;;;0.95;0.65;;;15.50;99.90;;;;;;4976120;28;20044;-77
2024/03/14 12:34:06;;;;;;;1.23;0.70;;;15.90;99.90;;;;;;4976105;28;20070;-77
2024/03/14 12:36:32;;;;;;;0.80;0.77;;;16.30;99.90;;;;;;4980476;28;20161;-77
2024/03/14 12:38:58;;;;;;;1.23;0.65;;;16.50;99.90;;;;;;4997342;28;20027;-77
2024/03/14 12:41:25;;;;;;;0.80;0.68;;;16.60;99.90;;;;;;4980570;28;20467;-77
2024/03/14 12:43:52;;;;;;;1.30;0.65;;;16.90;99.90;;;;;;4979945;28;20034;-78
2024/03/14 12:46:23;;;;;;;1.75;0.75;;;16.80;99.90;;;;;;4980580;28;20045;-77
2024/03/14 12:48:50;;;;;;;1.27;0.65;;;16.70;99.90;;;;;;4979985;28;20027;-78
2024/03/14 12:51:23;;;;;;;0.60;0.52;;;16.70;99.90;;;;;;4980475;28;20030;-77
2024/03/14 12:54:00;;;;;;;0.80;0.60;;;16.90;99.90;;;;;;4979632;28;20475;-77
2024/03/14 12:56:26;;;;;;;1.70;0.63;;;17.10;99.90;;;;;;4980274;28;20034;-77
2024/03/14 12:58:54;;;;;;;1.05;0.80;;;17.50;99.90;;;;;;4979479;28;20026;-77